Terminal Aerodrome Forecast
Issued by NWS Sterling, VA

Home | Current Version | Previous Version | Text Only | Print | Product List | Glossary On
Versions: 1 2 3 4 5 6 7 8 9 10 11 12 13 14 15 16 17 18 19 20 21 22 23
000
FTUS41 KLWX 272333
TAFBWI
TAF
KBWI 272333Z 2800/2906 18005KT P6SM FEW050 BKN190
     FM281000 VRB03KT P6SM BKN120
     FM281200 VRB03KT P6SM -SHRA OVC090
     FM281800 13005KT 5SM -SHRA OVC050
     FM282000 12005KT 3SM -SHRA OVC040
     FM290300 07007KT 3SM -SHRA OVC015=

USA.gov is the U.S. government's official web portal to all federal, state and local government web resources and services.